createdAt,value
2022-08-04T00:00:30.907Z,2.65
2022-08-04T00:03:16.865Z,2.70
2022-08-04T00:05:54.514Z,2.50
2022-08-04T00:08:33.584Z,2.83
2022-08-04T00:11:01.415Z,2.50
2022-08-04T00:13:29.732Z,2.75
2022-08-04T00:15:59.026Z,2.70
2022-08-04T00:18:34.250Z,2.60
2022-08-04T00:21:05.196Z,2.80
2022-08-04T00:24:11.466Z,2.72
2022-08-04T00:26:21.976Z,2.75
2022-08-04T00:28:49.222Z,2.72
2022-08-04T00:31:16.893Z,2.72
2022-08-04T00:33:46.692Z,2.90
2022-08-04T00:36:14.320Z,3.20
2022-08-04T00:38:42.176Z,2.60
2022-08-04T00:41:27.863Z,3.05
2022-08-04T00:44:13.765Z,3.10
2022-08-04T00:47:01.142Z,2.60
2022-08-04T00:49:46.095Z,3.17
2022-08-04T00:52:33.363Z,3.03
2022-08-04T00:55:01.759Z,3.08
2022-08-04T00:57:42.779Z,3.15
2022-08-04T01:00:11.885Z,3.27
2022-08-04T01:02:52.299Z,3.30
2022-08-04T01:05:29.453Z,3.28
2022-08-04T01:08:10.969Z,2.80
2022-08-04T01:10:38.208Z,3.22
2022-08-04T01:13:10.053Z,3.10
2022-08-04T01:16:00.600Z,3.38
2022-08-04T01:18:37.178Z,3.13
2022-08-04T01:21:27.750Z,3.30
2022-08-04T01:24:12.509Z,3.50
2022-08-04T01:26:57.759Z,3.10
2022-08-04T01:29:35.086Z,3.08
2022-08-04T01:32:33.892Z,2.92
2022-08-04T01:35:03.235Z,3.28
2022-08-04T01:37:39.380Z,2.90
2022-08-04T01:40:07.573Z,3.17
2022-08-04T01:42:35.622Z,3.55
2022-08-04T01:45:07.312Z,2.97
2022-08-04T01:47:38.682Z,3.47
2022-08-04T01:50:07.610Z,3.10
2022-08-04T01:52:36.454Z,3.57
2022-08-04T01:55:04.767Z,3.33
2022-08-04T01:57:37.496Z,3.20
2022-08-04T02:00:14.322Z,3.20
2022-08-04T02:02:41.548Z,3.10
2022-08-04T02:05:11.428Z,3.20
2022-08-04T02:07:43.811Z,3.22
2022-08-04T02:10:24.730Z,3.10
2022-08-04T02:13:03.792Z,3.10
2022-08-04T02:16:06.194Z,3.15
2022-08-04T02:18:40.466Z,2.80
2022-08-04T02:21:08.035Z,3.00
2022-08-04T02:23:41.763Z,3.20
2022-08-04T02:26:22.008Z,3.30
2022-08-04T02:28:52.391Z,3.67
2022-08-04T02:31:33.197Z,3.33
2022-08-04T02:34:05.458Z,3.40
2022-08-04T02:36:35.724Z,2.80
2022-08-04T02:39:04.764Z,3.15
2022-08-04T02:41:32.151Z,3.40
2022-08-04T02:44:00.725Z,3.10
2022-08-04T02:46:28.639Z,3.15
2022-08-04T02:48:56.749Z,3.33
2022-08-04T02:51:25.450Z,3.53
2022-08-04T02:53:54.062Z,3.00
2022-08-04T02:56:22.266Z,3.40
2022-08-04T02:59:00.299Z,2.97
2022-08-04T03:01:27.629Z,3.00
2022-08-04T03:04:02.654Z,3.55
2022-08-04T03:06:48.366Z,3.13
2022-08-04T03:09:24.658Z,3.80
2022-08-04T03:12:16.682Z,3.17
2022-08-04T03:14:52.751Z,3.50
2022-08-04T03:17:31.334Z,3.25
2022-08-04T03:19:58.398Z,3.00
2022-08-04T03:22:34.250Z,2.90
2022-08-04T03:25:19.862Z,3.00
2022-08-04T03:27:53.152Z,3.17
2022-08-04T03:30:21.275Z,3.15
2022-08-04T03:32:51.197Z,2.78
2022-08-04T03:35:22.973Z,3.10
2022-08-04T03:38:09.047Z,3.20
2022-08-04T03:40:56.476Z,3.10
2022-08-04T03:43:58.367Z,3.03
2022-08-04T03:46:45.004Z,2.90
2022-08-04T03:49:30.967Z,2.83
2022-08-04T03:52:28.867Z,3.05
2022-08-04T03:55:04.827Z,2.90
2022-08-04T03:57:42.101Z,2.92
2022-08-04T04:00:11.002Z,2.95
2022-08-04T04:02:56.854Z,3.10
2022-08-04T04:05:41.038Z,2.97
2022-08-04T04:08:49.674Z,3.05
2022-08-04T04:11:26.325Z,3.20
2022-08-04T04:14:02.406Z,3.15
2022-08-04T04:16:29.535Z,3.23
2022-08-04T04:19:03.074Z,3.05
2022-08-04T04:21:48.886Z,2.88
2022-08-04T04:24:36.556Z,3.10
2022-08-04T04:27:22.048Z,3.08
2022-08-04T04:29:58.194Z,3.53
2022-08-04T04:32:37.276Z,3.60
2022-08-04T04:35:07.415Z,3.05
2022-08-04T04:37:53.234Z,3.30
2022-08-04T04:40:43.611Z,3.88
2022-08-04T04:43:51.426Z,3.60
2022-08-04T04:46:31.188Z,3.63
2022-08-04T04:49:04.210Z,3.53
2022-08-04T04:51:57.310Z,3.95
2022-08-04T04:54:24.407Z,4.60
2022-08-04T04:56:54.450Z,4.23
2022-08-04T04:59:23.044Z,4.40
2022-08-04T05:01:59.360Z,4.88
2022-08-04T05:04:51.299Z,4.43
2022-08-04T05:07:30.438Z,4.68
2022-08-04T05:10:16.201Z,4.57
2022-08-04T05:14:33.222Z,3.83
2022-08-04T05:15:42.247Z,4.03
2022-08-04T05:18:10.970Z,4.20
2022-08-04T05:20:47.042Z,4.07
2022-08-04T05:23:16.255Z,4.07
2022-08-04T05:26:02.262Z,3.53
2022-08-04T05:28:34.029Z,3.65
2022-08-04T05:31:03.293Z,3.70
2022-08-04T05:33:35.207Z,4.13
2022-08-04T05:36:18.683Z,4.07
2022-08-04T05:38:51.790Z,3.80
2022-08-04T05:41:19.610Z,4.18
2022-08-04T05:43:47.461Z,3.80
2022-08-04T05:46:16.071Z,3.50
2022-08-04T05:48:44.055Z,3.60
2022-08-04T05:51:11.430Z,2.95
2022-08-04T05:53:38.996Z,3.97
2022-08-04T05:56:06.959Z,3.95
2022-08-04T05:58:35.568Z,3.72
2022-08-04T06:01:02.896Z,4.03
2022-08-04T06:03:31.505Z,3.72
2022-08-04T06:05:59.124Z,3.45
2022-08-04T06:08:26.486Z,3.50
2022-08-04T06:10:54.784Z,3.40
2022-08-04T06:13:46.724Z,3.60
2022-08-04T06:16:18.088Z,3.70
2022-08-04T06:20:03.596Z,3.65
2022-08-04T06:21:49.619Z,4.00
2022-08-04T06:24:18.298Z,3.78
2022-08-04T06:26:46.431Z,3.47
2022-08-04T06:29:22.663Z,4.55
2022-08-04T06:32:27.709Z,3.95
2022-08-04T06:34:45.645Z,3.10
2022-08-04T06:37:24.184Z,3.55
2022-08-04T06:40:01.031Z,3.37
2022-08-04T06:42:28.261Z,2.80
2022-08-04T06:44:57.330Z,2.83
2022-08-04T06:47:25.319Z,3.50
2022-08-04T06:51:30.949Z,2.78
2022-08-04T06:52:40.932Z,2.53
2022-08-04T06:55:08.661Z,2.20
2022-08-04T06:57:36.338Z,2.40
2022-08-04T07:00:10.416Z,2.30
2022-08-04T07:02:48.903Z,2.30
2022-08-04T07:05:16.707Z,2.37
2022-08-04T07:07:57.519Z,2.20
2022-08-04T07:10:25.792Z,2.20
2022-08-04T07:12:54.022Z,2.25
2022-08-04T07:15:21.933Z,2.38
2022-08-04T07:17:52.285Z,2.40
2022-08-04T07:20:33.985Z,2.45
2022-08-04T07:23:06.611Z,2.63
2022-08-04T07:25:59.628Z,2.40
2022-08-04T07:28:33.376Z,2.63
2022-08-04T07:31:01.515Z,2.53
2022-08-04T07:33:29.363Z,2.38
2022-08-04T07:36:09.079Z,2.03
2022-08-04T07:38:48.110Z,2.50
2022-08-04T07:41:38.289Z,2.88
2022-08-04T07:44:05.778Z,2.60
2022-08-04T07:46:32.969Z,2.40
2022-08-04T07:49:03.892Z,2.63
2022-08-04T07:51:31.686Z,2.72
2022-08-04T07:54:00.163Z,2.50
2022-08-04T07:56:27.916Z,2.87
2022-08-04T07:58:55.706Z,2.78
2022-08-04T08:01:23.452Z,2.25
2022-08-04T08:03:51.544Z,2.50
2022-08-04T08:06:32.804Z,2.58
2022-08-04T08:09:02.347Z,3.10
2022-08-04T08:12:36.928Z,2.67
2022-08-04T08:14:27.760Z,2.97
2022-08-04T08:16:55.034Z,3.00
2022-08-04T08:19:22.384Z,3.00
2022-08-04T08:21:59.627Z,2.90
2022-08-04T08:24:28.193Z,2.97
2022-08-04T08:26:56.819Z,2.88
2022-08-04T08:29:25.616Z,2.50
2022-08-04T08:31:56.421Z,2.80
2022-08-04T08:34:28.103Z,3.03
2022-08-04T08:37:01.550Z,3.03
2022-08-04T08:39:38.613Z,2.80
2022-08-04T08:42:14.877Z,3.10
2022-08-04T08:45:02.864Z,2.80
2022-08-04T08:48:04.782Z,2.97
2022-08-04T08:50:47.324Z,3.13
2022-08-04T08:53:15.112Z,3.00
2022-08-04T08:56:00.309Z,2.72
2022-08-04T08:58:43.181Z,2.67
2022-08-04T09:01:30.523Z,2.80
2022-08-04T09:04:23.242Z,2.90
2022-08-04T09:06:57.335Z,2.80
2022-08-04T09:09:24.431Z,2.75
2022-08-04T09:12:06.549Z,2.50
2022-08-04T09:14:39.318Z,2.73
2022-08-04T09:17:07.992Z,2.55
2022-08-04T09:19:40.221Z,2.53
2022-08-04T09:22:14.338Z,2.50
2022-08-04T09:25:00.238Z,2.50
2022-08-04T09:27:31.525Z,2.30
2022-08-04T09:29:58.627Z,2.10
2022-08-04T09:32:44.522Z,2.50
2022-08-04T09:35:16.179Z,2.80
2022-08-04T09:38:03.365Z,2.40
2022-08-04T09:40:53.692Z,2.80
2022-08-04T09:43:22.136Z,2.38
2022-08-04T09:45:55.882Z,2.60
2022-08-04T09:48:43.569Z,2.35
2022-08-04T09:51:57.666Z,2.55
2022-08-04T09:54:36.605Z,2.43
2022-08-04T09:57:14.291Z,2.40
2022-08-04T10:00:03.602Z,2.40
2022-08-04T10:02:33.603Z,2.70
2022-08-04T10:05:03.128Z,2.75
2022-08-04T10:07:39.613Z,2.17
2022-08-04T10:10:15.837Z,2.80
2022-08-04T10:12:51.898Z,2.35
2022-08-04T10:15:39.221Z,2.78
2022-08-04T10:18:09.571Z,2.53
2022-08-04T10:20:55.685Z,2.50
2022-08-04T10:23:31.534Z,2.58
2022-08-04T10:26:28.287Z,2.45
2022-08-04T10:28:57.390Z,2.40
2022-08-04T10:31:29.610Z,2.40
2022-08-04T10:34:03.666Z,2.40
2022-08-04T10:36:41.278Z,2.40
2022-08-04T10:39:42.412Z,2.42
2022-08-04T10:42:07.354Z,2.80
2022-08-04T10:44:41.929Z,2.20
2022-08-04T10:47:14.798Z,2.53
2022-08-04T10:49:45.695Z,2.45
2022-08-04T10:52:20.845Z,2.13
2022-08-04T10:54:58.633Z,2.05
2022-08-04T10:57:44.261Z,2.50
2022-08-04T11:00:19.747Z,2.33
2022-08-04T11:02:47.161Z,2.13
2022-08-04T11:05:29.614Z,2.00
2022-08-04T11:08:10.010Z,2.20
2022-08-04T11:10:42.850Z,2.45
2022-08-04T11:13:29.615Z,1.97
2022-08-04T11:15:57.941Z,2.40
2022-08-04T11:18:24.984Z,2.45
2022-08-04T11:20:56.946Z,2.35
2022-08-04T11:23:29.760Z,2.17
2022-08-04T11:25:59.903Z,1.90
2022-08-04T11:28:32.344Z,2.15
2022-08-04T11:31:07.070Z,2.28
2022-08-04T11:33:42.366Z,2.53
2022-08-04T11:36:15.537Z,2.50
2022-08-04T11:38:52.130Z,2.33
2022-08-04T11:41:22.783Z,2.40
2022-08-04T11:44:02.400Z,2.10
2022-08-04T11:46:41.559Z,2.72
2022-08-04T11:49:12.390Z,2.50
2022-08-04T11:51:40.460Z,2.40
2022-08-04T11:54:07.709Z,2.30
2022-08-04T11:56:36.949Z,2.58
2022-08-04T11:59:05.934Z,2.40
2022-08-04T12:01:36.609Z,2.47
2022-08-04T12:04:27.002Z,2.20
2022-08-04T12:07:35.414Z,2.28
2022-08-04T12:10:13.418Z,2.20
2022-08-04T12:12:47.225Z,2.65
2022-08-04T12:15:15.364Z,2.80
2022-08-04T12:17:53.424Z,2.40
2022-08-04T12:20:38.047Z,2.53
2022-08-04T12:23:14.880Z,2.47
2022-08-04T12:25:45.400Z,2.80
2022-08-04T12:28:16.527Z,2.70
2022-08-04T12:30:58.758Z,2.93
2022-08-04T12:34:02.986Z,2.80
2022-08-04T12:36:38.037Z,2.85
2022-08-04T12:39:11.045Z,2.60
2022-08-04T12:41:42.964Z,2.55
2022-08-04T12:44:36.973Z,2.90
2022-08-04T12:47:27.095Z,2.90
2022-08-04T12:49:59.025Z,2.83
2022-08-04T12:52:51.558Z,2.90
2022-08-04T12:55:16.161Z,3.17
2022-08-04T12:57:43.507Z,2.97
2022-08-04T13:00:11.276Z,2.90
2022-08-04T13:02:41.797Z,2.80
2022-08-04T13:05:09.970Z,3.13
2022-08-04T13:07:48.504Z,2.85
2022-08-04T13:10:17.633Z,2.70
2022-08-04T13:12:52.873Z,2.80
2022-08-04T13:15:22.612Z,2.40
2022-08-04T13:17:57.285Z,2.90
2022-08-04T13:20:27.371Z,2.78
2022-08-04T13:22:59.803Z,2.80
2022-08-04T13:26:42.532Z,2.67
2022-08-04T13:28:23.546Z,2.50
2022-08-04T13:30:57.794Z,2.45
2022-08-04T13:33:30.079Z,2.90
2022-08-04T13:35:58.768Z,2.70
2022-08-04T13:38:26.294Z,2.80
2022-08-04T13:40:53.827Z,2.95
2022-08-04T13:44:16.792Z,3.10
2022-08-04T13:46:32.011Z,2.65
2022-08-04T13:49:28.192Z,2.60
2022-08-04T13:51:58.340Z,2.47
2022-08-04T13:54:26.870Z,2.47
2022-08-04T13:57:00.610Z,2.50
2022-08-04T13:59:28.807Z,2.65
2022-08-04T14:02:04.745Z,2.63
2022-08-04T14:04:33.188Z,2.58
2022-08-04T14:07:06.110Z,2.40
2022-08-04T14:10:03.905Z,2.30
2022-08-04T14:12:38.186Z,2.28
2022-08-04T14:16:02.307Z,2.13
2022-08-04T14:18:32.270Z,2.10
2022-08-04T14:21:00.383Z,2.20
2022-08-04T14:23:32.442Z,2.10
2022-08-04T14:26:00.699Z,2.35
2022-08-04T14:29:08.436Z,2.70
2022-08-04T14:31:20.046Z,3.05
2022-08-04T14:34:01.207Z,2.88
2022-08-04T14:37:16.547Z,2.70
2022-08-04T14:39:39.073Z,2.25
2022-08-04T14:42:06.650Z,2.50
2022-08-04T14:44:52.654Z,2.85
2022-08-04T14:47:19.867Z,2.60
2022-08-04T14:49:56.150Z,3.22
2022-08-04T14:52:25.180Z,2.60
2022-08-04T14:54:52.529Z,3.00
2022-08-04T14:57:19.741Z,2.30
2022-08-04T15:00:00.606Z,2.30
2022-08-04T15:02:29.669Z,2.40
2022-08-04T15:04:57.553Z,2.47
2022-08-04T15:07:24.658Z,2.20
2022-08-04T15:09:51.770Z,2.60
2022-08-04T15:12:18.947Z,2.33
2022-08-04T15:14:46.067Z,2.20
2022-08-04T15:17:29.946Z,2.05
2022-08-04T15:19:58.098Z,2.30
2022-08-04T15:22:25.443Z,2.58
2022-08-04T15:24:55.353Z,2.17
2022-08-04T15:27:24.197Z,2.30
2022-08-04T15:30:00.855Z,2.38
2022-08-04T15:32:32.717Z,2.20
2022-08-04T15:35:04.523Z,2.05
2022-08-04T15:37:39.848Z,2.40
2022-08-04T15:40:12.523Z,2.90
2022-08-04T15:42:44.919Z,2.75
2022-08-04T15:46:33.274Z,2.77
2022-08-04T15:48:12.477Z,2.53
2022-08-04T15:50:58.104Z,2.60
2022-08-04T15:53:53.490Z,2.80
2022-08-04T15:56:28.321Z,2.63
2022-08-04T15:58:57.108Z,2.30
2022-08-04T16:01:24.342Z,2.40
2022-08-04T16:03:58.853Z,2.10
2022-08-04T16:06:28.956Z,2.50
2022-08-04T16:09:04.669Z,2.30
2022-08-04T16:11:40.021Z,2.40
2022-08-04T16:14:07.585Z,2.30
2022-08-04T16:16:41.033Z,2.10
2022-08-04T16:19:34.979Z,2.22
2022-08-04T16:22:03.109Z,2.20
2022-08-04T16:24:32.944Z,2.27
2022-08-04T16:27:00.815Z,2.10
2022-08-04T16:29:30.705Z,2.20
2022-08-04T16:32:12.918Z,2.28
2022-08-04T16:34:49.891Z,2.17
2022-08-04T16:37:21.634Z,2.23
2022-08-04T16:39:51.342Z,2.13
2022-08-04T16:42:30.998Z,2.05
2022-08-04T16:45:12.995Z,1.80
2022-08-04T16:47:49.327Z,2.00
2022-08-04T16:50:17.581Z,1.87
2022-08-04T16:52:49.264Z,1.90
2022-08-04T16:55:16.927Z,2.28
2022-08-04T16:57:47.482Z,1.88
2022-08-04T17:00:14.979Z,1.90
2022-08-04T17:02:42.214Z,2.00
2022-08-04T17:05:39.656Z,1.90
2022-08-04T17:08:29.043Z,2.22
2022-08-04T17:10:55.459Z,1.80
2022-08-04T17:14:01.902Z,2.17
2022-08-04T17:16:17.744Z,2.57
2022-08-04T17:18:49.511Z,1.90
2022-08-04T17:21:20.735Z,2.05
2022-08-04T17:24:16.595Z,2.03
2022-08-04T17:26:40.126Z,1.92
2022-08-04T17:29:09.148Z,2.10
2022-08-04T17:31:37.606Z,1.90
2022-08-04T17:34:15.760Z,2.50
2022-08-04T17:36:44.064Z,2.00
2022-08-04T17:39:16.796Z,2.08
2022-08-04T17:41:48.878Z,2.07
2022-08-04T17:44:19.980Z,1.90
2022-08-04T17:46:48.773Z,2.17
2022-08-04T17:49:18.931Z,2.10
2022-08-04T17:52:04.406Z,2.25
2022-08-04T17:54:40.507Z,1.93
2022-08-04T17:57:20.268Z,2.65
2022-08-04T17:59:57.681Z,2.38
2022-08-04T18:02:33.299Z,2.17
2022-08-04T18:05:07.925Z,2.40
2022-08-04T18:08:37.793Z,2.00
2022-08-04T18:10:57.310Z,2.10
2022-08-04T18:13:25.272Z,1.73
2022-08-04T18:16:02.607Z,2.05
2022-08-04T18:18:30.118Z,1.83
2022-08-04T18:21:03.031Z,2.03
2022-08-04T18:23:32.804Z,1.70
2022-08-04T18:26:02.236Z,2.00
2022-08-04T18:28:33.571Z,1.83
2022-08-04T18:31:01.262Z,1.73
2022-08-04T18:33:39.803Z,1.87
2022-08-04T18:36:32.795Z,1.73
2022-08-04T18:38:58.487Z,2.15
2022-08-04T18:41:26.683Z,1.80
2022-08-04T18:43:56.773Z,1.85
2022-08-04T18:46:27.359Z,1.70
2022-08-04T18:48:57.189Z,2.22
2022-08-04T18:51:31.001Z,2.20
2022-08-04T18:53:59.201Z,2.10
2022-08-04T18:56:32.533Z,2.10
2022-08-04T18:59:03.988Z,2.10
2022-08-04T19:02:15.798Z,1.63
2022-08-04T19:07:25.154Z,1.98
2022-08-04T19:09:57.426Z,2.03
2022-08-04T19:12:40.848Z,2.03
2022-08-04T19:15:11.218Z,2.00
2022-08-04T19:17:53.475Z,1.83
2022-08-04T19:20:26.000Z,2.17
2022-08-04T19:24:32.030Z,2.20
2022-08-04T19:26:01.195Z,1.93
2022-08-04T19:28:34.153Z,2.20
2022-08-04T19:31:03.014Z,2.10
2022-08-04T19:33:58.222Z,2.33
2022-08-04T19:36:17.502Z,2.40
2022-08-04T19:38:45.110Z,2.23
2022-08-04T19:41:14.248Z,2.28
2022-08-04T19:43:43.770Z,2.30
2022-08-04T19:46:12.293Z,2.20
2022-08-04T19:48:39.598Z,2.13
2022-08-04T19:51:07.845Z,2.20
2022-08-04T19:53:37.381Z,2.28
2022-08-04T19:56:05.428Z,2.03
2022-08-04T19:58:32.523Z,2.13
2022-08-04T20:00:59.580Z,2.30
2022-08-04T20:04:10.408Z,2.23
2022-08-04T20:06:14.894Z,2.17
2022-08-04T20:08:48.703Z,2.53
2022-08-04T20:11:20.526Z,2.67
2022-08-04T20:13:54.481Z,2.75
2022-08-04T20:16:29.676Z,2.10
2022-08-04T20:19:03.170Z,2.70
2022-08-04T20:21:55.755Z,2.60
2022-08-04T20:24:37.873Z,2.60
2022-08-04T20:27:11.517Z,2.30
2022-08-04T20:29:43.145Z,2.70
2022-08-04T20:32:10.697Z,2.22
2022-08-04T20:34:41.503Z,2.60
2022-08-04T20:37:10.320Z,2.45
2022-08-04T20:39:37.909Z,2.95
2022-08-04T20:42:05.247Z,2.40
2022-08-04T20:44:33.735Z,2.30
2022-08-04T20:47:01.618Z,2.50
2022-08-04T20:52:20.339Z,2.70
2022-08-04T20:54:49.209Z,2.50
2022-08-04T20:57:49.170Z,2.35
2022-08-04T21:00:10.488Z,2.50
2022-08-04T21:02:41.462Z,2.50
2022-08-04T21:05:09.393Z,2.38
2022-08-04T21:07:41.747Z,2.40
2022-08-04T21:10:11.069Z,2.40
2022-08-04T21:12:38.201Z,2.75
2022-08-04T21:15:13.582Z,2.53
2022-08-04T21:17:59.484Z,2.45
2022-08-04T21:20:28.779Z,2.50
2022-08-04T21:22:59.487Z,2.50
2022-08-04T21:25:27.107Z,2.78
2022-08-04T21:27:54.217Z,2.55
2022-08-04T21:30:25.211Z,2.45
2022-08-04T21:32:53.339Z,2.40
2022-08-04T21:35:37.073Z,2.80
2022-08-04T21:38:17.121Z,3.42
2022-08-04T21:40:53.446Z,3.35
2022-08-04T21:43:20.983Z,3.00
2022-08-04T21:45:51.005Z,2.73
2022-08-04T21:48:18.632Z,2.83
2022-08-04T21:50:50.527Z,2.78
2022-08-04T21:53:19.803Z,2.60
2022-08-04T21:56:06.560Z,2.75
2022-08-04T21:58:36.247Z,2.67
2022-08-04T22:01:13.077Z,2.75
2022-08-04T22:03:53.612Z,2.60
2022-08-04T22:06:28.255Z,2.83
2022-08-04T22:08:56.637Z,2.80
2022-08-04T22:11:25.839Z,2.80
2022-08-04T22:14:10.948Z,2.65
2022-08-04T22:16:39.967Z,2.67
2022-08-04T22:19:10.751Z,2.80
2022-08-04T22:21:39.280Z,2.72
2022-08-04T22:24:14.385Z,2.77
2022-08-04T22:26:42.330Z,2.70
2022-08-04T22:29:14.368Z,2.75
2022-08-04T22:31:56.035Z,2.80
2022-08-04T22:34:24.806Z,2.72
2022-08-04T22:36:52.599Z,2.53
2022-08-04T22:39:23.343Z,2.60
2022-08-04T22:42:03.790Z,2.78
2022-08-04T22:44:33.060Z,3.00
2022-08-04T22:47:01.025Z,2.72
2022-08-04T22:49:31.838Z,2.70
2022-08-04T22:51:59.772Z,2.50
2022-08-04T22:54:31.875Z,2.53
2022-08-04T22:56:59.066Z,2.92
2022-08-04T22:59:27.852Z,2.45
2022-08-04T23:01:59.564Z,2.30
2022-08-04T23:04:28.377Z,2.63
2022-08-04T23:06:55.544Z,2.72
2022-08-04T23:09:49.523Z,2.60
2022-08-04T23:12:25.102Z,3.25
2022-08-04T23:14:53.476Z,2.77
2022-08-04T23:17:22.195Z,2.60
2022-08-04T23:19:57.352Z,2.30
2022-08-04T23:22:36.958Z,2.58
2022-08-04T23:25:04.899Z,2.70
2022-08-04T23:27:40.319Z,2.57
2022-08-04T23:30:11.257Z,2.40
2022-08-04T23:32:38.337Z,2.63
2022-08-04T23:35:05.629Z,2.45
2022-08-04T23:37:36.408Z,2.67
2022-08-04T23:40:32.722Z,2.70
2022-08-04T23:43:02.146Z,2.83
2022-08-04T23:46:04.575Z,2.53
2022-08-04T23:48:24.835Z,2.65
2022-08-04T23:50:52.286Z,2.88
2022-08-04T23:53:22.499Z,2.50
2022-08-04T23:55:49.903Z,2.40
2022-08-04T23:58:20.827Z,2.72
